Latest Weather Observations for Truscott

IDD60801

Issued at 10:01 am CST Tuesday 3 March 2015 (issued every 30 minutes, with the page automatically refreshed every 10 minutes)

About weather observations | Map of weather stations | Latest weather observations for NT | Other Formats
Station Details ID: 001020 Name: TRUSCOTT Lat: -14.09 Lon: 126.39 Height: 51.0 m
Data from the previous 72 hours. | See also: Recent months at Truscott
Date/Time
CST
Temp
°C
App
Temp
°C
Dew
Point
Rel
Hum
%
Delta-T
°C
Wind Press
QNH
hPa
Press
MSL
hPa
Rain
since 9 am
mm
Dir
 
Spd
km/h
Gust
km/h
Spd
kts
Gust
kts
03/10:00am 24.3 27.7 23.4 95 0.6 S 11 15 6 8 1008.4 - 26.4
03/09:30am 24.1 28.4 23.6 97 0.3 S 7 11 4 6 1008.4 - 26.4
03/09:00am 24.0 27.2 23.1 95 0.6 S 11 13 6 7 1008.1 - 26.2
03/08:30am 24.1 27.6 23.6 97 0.3 S 11 17 6 9 1008.1 - 25.6
03/08:00am 23.9 27.6 23.2 96 0.5 SSE 9 13 5 7 1008.0 - 25.2
03/07:30am 24.0 26.9 23.1 95 0.6 S 13 19 7 10 1007.8 1007.2 24.8
03/07:18am 23.8 27.2 23.3 97 0.3 S 11 19 6 10 1007.7 - 24.8
03/07:04am 23.8 26.7 23.1 96 0.5 SSE 13 19 7 10 1007.6 - 24.0
03/07:00am 23.9 26.3 22.9 94 0.7 S 15 20 8 11 1007.5 - 23.8
03/06:30am 25.0 26.9 23.4 91 1.1 S 19 24 10 13 1006.5 - 21.4
03/06:00am 26.5 32.1 25.8 96 0.5 SW 7 11 4 6 1006.2 - 19.2
03/05:30am 26.7 32.2 26.2 97 0.4 SW 9 11 5 6 1005.6 - 18.6
03/05:00am 26.6 32.3 25.9 96 0.5 WSW 7 11 4 6 1005.0 - 18.2
03/04:30am 26.6 31.9 25.9 96 0.5 W 9 13 5 7 1005.3 1004.7 17.8
03/04:00am 26.2 30.9 25.5 96 0.5 WNW 11 17 6 9 1004.5 - 17.6
03/03:30am 26.4 30.7 25.5 95 0.6 W 13 28 7 15 1004.6 - 17.0
03/03:26am 25.6 30.5 25.3 98 0.2 WSW 9 15 5 8 1004.6 - 16.8
03/03:09am 25.2 30.1 24.7 97 0.3 WSW 7 11 4 6 1004.9 - 15.8
03/03:00am 25.0 29.3 24.3 96 0.5 W 9 13 5 7 1005.2 - 14.8
03/02:43am 25.1 27.5 23.7 92 1.0 W 17 24 9 13 1005.2 - 14.2
03/02:38am 24.9 27.1 24.0 95 0.6 WSW 19 28 10 15 1005.3 - 14.2
03/02:30am 24.6 26.6 23.6 94 0.7 WNW 19 28 10 15 1005.5 - 14.0
03/02:25am 24.1 25.3 22.5 91 1.1 WNW 20 26 11 14 1005.8 - 13.4
03/02:16am 25.1 26.0 22.0 83 2.1 S 20 32 11 17 1005.9 - 3.0
03/02:00am 29.2 32.8 25.6 81 2.5 WSW 17 26 9 14 1004.7 - 0.0
03/01:30am 29.3 33.0 25.7 81 2.6 WSW 17 26 9 14 1005.2 1004.6 0.0
03/01:00am 29.3 33.1 25.9 82 2.4 WSW 17 30 9 16 1005.7 - 0.0
03/12:30am 29.3 32.7 25.9 82 2.4 WSW 19 32 10 17 1005.4 - 0.0
03/12:00am 29.3 32.9 26.1 83 2.3 WSW 19 30 10 16 1005.6 - 0.0
 
Date/Time
CST
Temp
°C
App
Temp
°C
Dew
Point
Rel
Hum
%
Delta-T
°C
Wind Press
QNH
hPa
Press
MSL
hPa
Rain
since 9 am
mm
Dir
 
Spd
km/h
Gust
km/h
Spd
kts
Gust
kts
02/11:30pm 29.4 33.0 26.2 83 2.3 W 19 30 10 16 1005.8 - 0.0
02/11:00pm 29.5 32.9 25.9 81 2.6 WSW 19 26 10 14 1006.3 - 0.0
02/10:30pm 29.5 33.3 25.9 81 2.6 W 17 24 9 13 1006.4 1005.8 0.0
02/10:00pm 29.6 32.6 25.6 79 2.8 WSW 20 33 11 18 1005.9 - 0.0
02/09:30pm 29.5 33.4 26.1 82 2.4 W 17 22 9 12 1005.6 - 0.0
02/09:00pm 29.4 33.4 26.2 83 2.3 W 17 28 9 15 1005.3 - 0.0
02/08:30pm 29.5 33.0 26.3 83 2.3 W 20 28 11 15 1004.4 - 0.0
02/08:00pm 29.7 33.1 25.9 80 2.7 W 19 28 10 15 1004.1 - 0.0
02/07:30pm 29.9 33.1 25.6 78 3.1 W 19 28 10 15 1003.5 1003.0 0.0
02/07:00pm 30.4 34.1 25.7 76 3.3 W 17 24 9 13 1003.0 - 0.0
02/06:30pm 30.7 33.9 25.5 74 3.7 W 19 28 10 15 1002.7 - 0.0
02/06:00pm 31.3 34.3 25.2 70 4.3 W 19 30 10 16 1002.6 - 0.0
02/05:30pm 31.4 34.1 25.0 69 4.5 W 20 30 11 16 1002.5 - 0.0
02/05:00pm 31.5 34.2 25.6 71 4.2 WNW 22 35 12 19 1002.7 - 0.0
02/04:30pm 31.9 34.6 25.0 67 4.9 W 20 28 11 15 1003.0 1002.5 0.0
02/04:00pm 32.3 35.1 24.3 62 5.6 W 17 24 9 13 1003.1 - 0.0
02/03:30pm 32.2 34.6 24.3 63 5.5 W 19 26 10 14 1003.4 - 0.0
02/03:00pm 31.7 34.7 24.6 66 5.0 WNW 17 24 9 13 1003.7 - 0.0
02/02:30pm 31.7 34.7 24.6 66 5.0 W 17 24 9 13 1004.3 - 0.0
02/02:00pm 32.4 36.5 25.2 66 5.1 W 13 20 7 11 1004.7 - 0.0
02/01:30pm 32.5 35.1 22.6 56 6.8 WSW 13 22 7 12 1005.3 1004.7 0.0
02/01:00pm 32.0 34.4 23.0 59 6.2 WSW 15 22 8 12 1005.5 - 0.0
02/12:30pm 31.9 33.9 24.0 63 5.5 SW 20 28 11 15 1005.9 - 0.0
02/12:00pm 31.6 33.6 23.9 63 5.4 SSW 20 30 11 16 1006.4 - 0.0
02/11:30am 30.7 33.7 24.6 70 4.3 WSW 17 24 9 13 1006.9 - 0.0
02/11:00am 29.9 32.2 24.1 71 4.0 SW 19 22 10 12 1007.1 - 0.0
02/10:30am 29.2 32.1 24.5 76 3.3 SW 17 24 9 13 1007.5 1006.9 16.8
02/10:00am 29.1 32.0 24.4 76 3.3 SW 17 24 9 13 1007.5 - 16.8
02/09:30am 29.2 32.5 24.5 76 3.3 WSW 15 24 8 13 1007.4 - 16.8
02/09:00am 28.3 33.0 25.5 85 2.0 SW 11 17 6 9 1007.3 - 16.8
02/08:30am 27.4 32.8 26.0 92 1.0 SW 9 13 5 7 1006.9 - 16.8
02/08:00am 26.3 31.3 25.4 95 0.6 SW 9 11 5 6 1006.7 - 16.8
02/07:30am 25.8 30.9 24.9 95 0.6 SSW 7 11 4 6 1006.5 1005.9 16.8
02/07:00am 25.9 31.2 25.2 96 0.5 SW 7 11 4 6 1006.3 - 16.8
02/06:30am 25.4 30.3 24.7 96 0.5 SSE 7 9 4 5 1006.3 - 16.8
02/06:00am 25.5 30.5 24.5 94 0.7 S 6 7 3 4 1005.6 - 16.8
02/05:30am 26.4 31.3 24.6 90 1.3 SW 7 11 4 6 1005.0 - 16.8
02/05:00am 26.2 30.0 24.1 88 1.4 WSW 11 13 6 7 1004.8 - 16.8
02/04:30am 26.1 30.3 24.1 89 1.4 W 9 15 5 8 1004.8 1004.3 16.8
02/04:00am 26.0 30.3 24.2 90 1.2 WSW 9 13 5 7 1005.0 - 16.8
02/03:30am 25.7 30.6 24.3 92 1.0 WSW 6 9 3 5 1005.3 - 16.8
02/03:00am 25.9 30.4 23.9 89 1.4 WSW 7 11 4 6 1005.6 - 16.8
02/02:30am 26.0 30.1 24.0 89 1.4 WSW 9 13 5 7 1006.1 - 16.8
02/02:00am 26.1 30.7 24.1 89 1.4 SW 7 11 4 6 1006.6 - 16.8
02/01:30am 26.2 30.8 24.2 89 1.4 WSW 7 11 4 6 1006.7 1006.1 16.8
02/01:00am 26.2 30.5 24.2 89 1.4 SSW 9 11 5 6 1006.9 - 16.8
02/12:30am 26.3 31.4 24.9 92 1.0 S 7 9 4 5 1006.9 - 16.8
02/12:00am 26.1 31.2 24.7 92 1.0 WNW 6 6 3 3 1007.1 - 16.8
 
Date/Time
CST
Temp
°C
App
Temp
°C
Dew
Point
Rel
Hum
%
Delta-T
°C
Wind Press
QNH
hPa
Press
MSL
hPa
Rain
since 9 am
mm
Dir
 
Spd
km/h
Gust
km/h
Spd
kts
Gust
kts
01/11:30pm 26.6 31.0 24.4 88 1.5 SW 9 13 5 7 1007.3 - 16.8
01/11:00pm 26.6 31.4 24.4 88 1.5 SW 7 11 4 6 1007.2 - 16.8
01/10:30pm 26.7 30.8 24.5 88 1.5 SSW 11 13 6 7 1007.2 1006.6 16.8
01/10:00pm 26.8 31.0 24.8 89 1.4 SSW 11 15 6 8 1007.0 - 16.8
01/09:30pm 27.0 31.5 25.2 90 1.3 SW 11 17 6 9 1006.3 - 16.8
01/09:00pm 27.3 31.9 25.9 92 1.0 SW 13 17 7 9 1006.4 - 16.8
01/08:30pm 27.4 32.3 26.9 97 0.4 SSW 15 19 8 10 1006.6 - 16.8
01/08:00pm 27.0 32.3 27.0 100 0.0 WSW 13 17 7 9 1006.0 - 16.8
01/07:50pm 26.5 31.5 26.5 100 0.0 SW 13 19 7 10 1005.7 - 16.8
01/07:49pm 26.5 31.5 26.5 100 0.0 SW 13 19 7 10 1005.6 - 16.8
01/07:38pm 26.1 30.4 26.1 100 0.0 SW 15 22 8 12 1005.5 - 16.4
01/07:30pm 25.6 29.0 25.3 98 0.2 SSW 17 24 9 13 1005.7 1005.1 15.8
01/07:05pm 25.0 25.8 22.5 86 1.7 S 22 33 12 18 1006.4 - 1.8
01/07:00pm 26.2 28.1 23.7 86 1.7 S 20 32 11 17 1006.4 - 0.2
01/06:30pm 29.8 33.5 25.1 76 3.3 W 15 24 8 13 1005.8 - 0.0
01/06:00pm 29.9 31.7 23.6 69 4.4 W 20 28 11 15 1005.2 - 0.0
01/05:30pm 30.0 33.2 24.4 72 3.9 W 15 24 8 13 1005.4 - 0.0
01/05:26pm 30.0 33.4 24.6 73 3.8 WSW 15 24 8 13 1005.8 - 0.0
01/05:00pm 30.3 32.1 24.2 70 4.3 WSW 22 30 12 16 1003.8 - 0.0
01/04:30pm 31.3 32.4 24.9 69 4.5 W 28 44 15 24 1004.2 1003.7 0.0
01/04:00pm 31.1 31.3 22.1 58 6.1 W 24 32 13 17 1004.1 - 0.0
01/03:30pm 32.0 33.3 24.1 63 5.5 W 24 35 13 19 1004.1 - 0.0
01/03:00pm 32.6 35.0 24.6 62 5.6 W 20 28 11 15 1004.8 - 0.0
01/02:30pm 32.1 34.3 24.9 65 5.1 WNW 22 32 12 17 1005.2 - 0.0
01/02:00pm 31.7 34.2 24.8 67 4.9 W 20 30 11 16 1005.7 - 0.0
01/01:30pm 32.0 34.4 24.3 63 5.4 W 19 30 10 16 1006.0 1005.4 0.0
01/01:00pm 32.8 36.2 25.3 64 5.3 W 17 28 9 15 1006.7 - 0.0
01/12:30pm 31.9 34.8 24.5 65 5.2 W 17 22 9 12 1007.3 - 0.0
01/12:00pm 32.0 34.3 24.1 63 5.5 SSW 19 28 10 15 1007.5 - 0.0
01/11:30am 31.3 34.0 24.2 66 5.0 WSW 17 26 9 14 1008.0 - 0.0
01/11:00am 31.1 33.8 24.2 66 4.8 SW 17 26 9 14 1008.1 - 0.0
01/10:30am 31.0 34.3 25.1 71 4.2 SW 17 24 9 13 1008.3 1007.7 0.0
01/10:00am 29.9 33.5 25.0 75 3.4 WSW 15 22 8 12 1008.2 - 0.0
01/09:30am 29.4 33.1 25.2 78 3.0 SW 15 26 8 14 1008.3 - 0.0
01/09:00am 28.5 32.4 24.9 81 2.5 SW 13 17 7 9 1008.0 - 0.0
01/08:30am 27.4 32.0 24.7 85 1.9 SW 9 15 5 8 1007.9 - 0.0
01/08:00am 26.4 31.0 24.8 91 1.1 SW 9 13 5 7 1007.8 - 0.0
01/07:30am 25.8 30.2 24.4 92 1.0 SW 9 13 5 7 1007.6 1007.0 0.0
01/07:00am 25.8 30.3 24.6 93 0.8 SW 9 11 5 6 1006.9 - 0.0
01/06:30am 25.4 30.0 24.2 93 0.8 SSW 7 9 4 5 1006.4 - 0.0
01/06:26am 25.4 30.0 24.2 93 0.8 SSW 7 9 4 5 1006.4 - 0.0
01/06:14am 25.4 29.7 24.2 93 0.8 SSW 9 11 5 6 1006.2 - 0.0
01/06:00am 25.4 29.9 24.0 92 1.0 SW 7 9 4 5 1006.0 - 0.0
01/05:30am 25.3 29.5 23.4 89 1.3 SW 7 9 4 5 1005.9 - 0.0
01/05:00am 25.7 29.9 23.4 87 1.6 SW 7 11 4 6 1005.4 - 0.0
01/04:30am 25.6 29.4 22.7 84 2.0 SW 7 7 4 4 1005.3 1004.7 0.0
01/04:00am 25.4 29.2 22.7 85 1.8 SSW 7 9 4 5 1005.6 - 0.0
01/03:30am 25.4 28.9 22.9 86 1.7 SW 9 11 5 6 1005.8 - 0.0
01/03:00am 25.2 28.7 22.9 87 1.6 S 9 13 5 7 1006.3 - 0.0
01/02:30am 25.7 29.6 22.6 83 2.1 SSW 6 7 3 4 1006.6 - 0.0
01/02:00am 25.6 29.3 22.5 83 2.1 WSW 7 9 4 5 1006.7 - 0.0
01/01:30am 25.0 29.2 22.5 86 1.7 SSE 4 7 2 4 1006.9 1006.3 0.0
01/01:00am 25.6 29.1 22.1 81 2.3 SW 7 9 4 5 1006.8 - 0.0
01/12:30am 24.8 30.0 23.6 93 0.8 S 2 6 1 3 1007.3 - 0.0
01/12:00am 24.8 29.3 23.6 93 0.8 SSE 6 7 3 4 1007.7 - 0.0
 
Date/Time
CST
Temp
°C
App
Temp
°C
Dew
Point
Rel
Hum
%
Delta-T
°C
Wind Press
QNH
hPa
Press
MSL
hPa
Rain
since 9 am
mm
Dir
 
Spd
km/h
Gust
km/h
Spd
kts
Gust
kts
28/11:30pm 25.0 29.2 23.4 91 1.1 S 7 9 4 5 1007.6 - 0.0
28/11:00pm 24.9 29.1 23.1 90 1.2 SE 6 7 3 4 1007.7 - 0.0
28/10:30pm 25.4 29.4 23.1 87 1.6 S 7 13 4 7 1007.8 1007.2 0.0
28/10:00pm 25.1 28.5 23.3 90 1.2 SSW 11 15 6 8 1007.9 - 0.0
28/09:30pm 24.9 28.4 23.5 92 1.0 SSW 11 17 6 9 1007.4 - 0.0
28/09:00pm 25.8 29.1 23.8 89 1.4 SSW 13 17 7 9 1007.2 - 0.0
28/08:30pm 25.2 27.8 23.3 89 1.3 SW 15 22 8 12 1007.4 - 0.0
28/08:00pm 26.6 26.3 21.8 75 3.2 S 26 37 14 20 1007.2 - 0.0
28/07:30pm 29.8 32.3 24.4 73 3.8 WSW 19 26 10 14 1006.4 1005.8 0.0
28/07:00pm 29.8 32.9 24.2 72 3.9 WSW 15 20 8 11 1006.1 - 0.0
28/06:30pm 30.2 33.9 25.7 77 3.2 W 17 26 9 14 1004.5 - 0.0
28/06:00pm 30.4 33.6 25.0 73 3.8 W 17 24 9 13 1004.1 - 0.0
28/05:30pm 31.1 33.6 24.7 68 4.5 WNW 20 28 11 15 1004.1 - 0.0
28/05:00pm 31.2 32.8 23.8 64 5.1 WNW 22 32 12 17 1004.2 - 0.0
28/04:30pm 31.3 33.0 23.4 63 5.5 NW 20 32 11 17 1004.2 1003.7 0.0
28/04:00pm 32.2 35.0 25.0 65 5.1 WNW 19 28 10 15 1004.5 - 0.0
28/03:30pm 32.7 35.4 24.2 61 6.0 W 17 22 9 12 1005.0 - 0.0
28/03:00pm 32.2 34.4 23.2 59 6.2 W 17 24 9 13 1005.5 - 0.0
28/02:30pm 32.8 34.8 22.9 56 6.8 W 17 24 9 13 1005.9 - 0.0
28/02:00pm 32.1 34.1 23.9 62 5.7 WNW 20 28 11 15 1006.4 - 0.0
28/01:30pm 32.4 34.4 23.6 59 6.1 W 19 30 10 16 1007.2 1006.6 0.0
28/01:00pm 32.2 34.7 23.2 59 6.2 W 15 24 8 13 1007.4 - 0.0
28/12:30pm 31.7 33.9 23.2 60 5.9 WNW 17 24 9 13 1007.8 - 0.0
28/12:00pm 31.5 35.4 24.9 68 4.7 W 13 22 7 12 1008.1 - 0.0

Other Formats:

Comma delimited format used in spreadsheet applications
http://www.bom.gov.au/fwo/IDD60801/IDD60801.95101.axf

JavaScript Object Notation format (JSON) in row-major order
http://www.bom.gov.au/fwo/IDD60801/IDD60801.95101.json